Welcome to Northern Hawkes Bay. New Zealand.
PWS Header
      nz Flag



Hit Counter


W3C Valid W3C Valid logo


    Wairoa

Select any of the Stations below to visit their websites.










Historic Data from Weather Underground
Select the location of interest below. Wairoa is the default. Please have patience, this Data is slow to load in.
Northern Hawkes Bay Historical Data
Daily Summary for March 29, 2017 Units:  English    Metric   Both
« Previous Day
Next Day »
Daily Weekly Monthly Yearly Custom
  High: Low: Average:
Temperature: 77.2 °F 63.1 °F 68.7 °F
Dew Point: 70.2 °F 57.9 °F 64 °F
Humidity: 99% 54% 86%
Wind Speed: 13.6mph 0mph 3.9mph
Wind Gust: 19mph - -
Wind- - SE
Pressure: 30 in 29.8 in -
Precipitation: 0.37 in    
Historical Graphs
 
 
Tabular Data for March 29, 2017
Time Temperature Dew Point Pressure Wind Wind Speed Wind Gust Humidity Rainfall Rate (Hourly) solar
00:04 63.1 °F 62.2 °F 30 in SSW 3.8 mph 8.3 mph 97% 0.08 in 0 W/m2
00:10 63.1 °F 62.2 °F 30 in SW 4.5 mph 8.3 mph 97% 0.08 in 0 W/m2
00:16 63.3 °F 62.4 °F 30 in SSW 6 mph 10.7 mph 97% 0.07 in 0 W/m2
00:22 63.3 °F 62.4 °F 29.9 in SSW 9.2 mph 15.9 mph 97% 0.07 in 0 W/m2
00:28 63.5 °F 62.8 °F 29.9 in SSW 8.3 mph 15.9 mph 97% 0.06 in 0 W/m2
00:34 63.7 °F 62.8 °F 29.9 in SSW 4.5 mph 15.2 mph 97% 0.06 in 0 W/m2
00:40 63.7 °F 62.8 °F 29.9 in SSW 8.3 mph 15.2 mph 97% 0.05 in 0 W/m2
00:46 63.7 °F 62.8 °F 29.9 in South 11.4 mph 17.4 mph 97% 0.05 in 0 W/m2
00:52 63.7 °F 62.8 °F 29.9 in South 9.2 mph 17.4 mph 97% 0.04 in 0 W/m2
00:58 63.9 °F 63 °F 29.9 in SSW 6.9 mph 16.8 mph 97% 0.02 in 0 W/m2
01:04 63.9 °F 63 °F 29.9 in SSW 9.8 mph 16.8 mph 97% 0.02 in 0 W/m2
01:10 63.9 °F 63 °F 29.9 in SSW 9.8 mph 18.3 mph 97% 0.01 in 0 W/m2
01:16 64 °F 63.1 °F 29.9 in SSW 10.7 mph 18.3 mph 97% 0.01 in 0 W/m2
01:22 64 °F 63.1 °F 29.9 in SSW 9.8 mph 17.4 mph 97% 0.01 in 0 W/m2
01:28 64 °F 63.1 °F 29.9 in SSW 9.8 mph 16.8 mph 97% 0.02 in 0 W/m2
01:34 64 °F 63.1 °F 29.9 in South 9.2 mph 16.8 mph 97% 0.05 in 0 W/m2
01:40 64 °F 63.1 °F 29.9 in South 9.2 mph 15.2 mph 97% 0.07 in 0 W/m2
01:46 64.2 °F 63.3 °F 29.9 in South 7.6 mph 14.5 mph 97% 0.08 in 0 W/m2
01:52 64.2 °F 63.3 °F 29.9 in SSE 6.9 mph 13.6 mph 97% 0.08 in 0 W/m2
01:58 64.2 °F 63.3 °F 29.9 in South 9.2 mph 15.2 mph 97% 0.09 in 0 W/m2
02:06 64.4 °F 64 °F 29.9 in South 3.8 mph 15.2 mph 99% 0.11 in 0 W/m2
02:12 64.9 °F 64.8 °F 29.9 in South 6.9 mph 15.9 mph 99% 0.13 in 0 W/m2
02:18 64.8 °F 64.6 °F 29.9 in South 6 mph 17.4 mph 99% 0.15 in 0 W/m2
02:24 64.8 °F 64.6 °F 29.9 in South 9.2 mph 17.4 mph 99% 0.14 in 0 W/m2
02:30 64.9 °F 64.8 °F 29.9 in South 5.4 mph 15.9 mph 99% 0.13 in 0 W/m2
02:36 65.1 °F 64.9 °F 29.9 in South 5.4 mph 12.1 mph 99% 0.12 in 0 W/m2
02:42 65.3 °F 64.9 °F 29.9 in SSE 5.4 mph 12.1 mph 99% 0.09 in 0 W/m2
02:48 65.7 °F 65.5 °F 29.9 in South 6.9 mph 12.1 mph 99% 0.08 in 0 W/m2
02:54 65.8 °F 65.7 °F 29.9 in South 3.1 mph 12.1 mph 99% 0.08 in 0 W/m2
03:00 65.8 °F 65.7 °F 29.9 in SSE 3.8 mph 9.2 mph 99% 0.06 in 0 W/m2
03:06 65.8 °F 65.7 °F 29.9 in SSE 3.1 mph 8.3 mph 99% 0.06 in 0 W/m2
03:12 65.8 °F 65.7 °F 29.9 in SSE 3.1 mph 6.9 mph 99% 0.04 in 0 W/m2
03:18 65.8 °F 65.7 °F 29.9 in SSE 3.1 mph 9.2 mph 99% 0.01 in 0 W/m2
03:24 65.8 °F 65.7 °F 29.9 in SSE 2.2 mph 9.2 mph 99% 0.01 in 0 W/m2
03:30 65.7 °F 65.5 °F 29.9 in South 2.2 mph 7.6 mph 99% 0.02 in 0 W/m2
03:36 65.7 °F 65.5 °F 29.9 in Calm   6.9 mph 99% 0.01 in 0 W/m2
03:42 65.7 °F 65.5 °F 29.9 in Calm   6.9 mph 99% 0.01 in 0 W/m2
03:48 65.8 °F 65.7 °F 29.9 in SSE 7.6 mph 9.2 mph 99% 0.01 in 0 W/m2
03:54 65.8 °F 65.7 °F 29.9 in SSE 1.6 mph 9.2 mph 99% 0.01 in 0 W/m2
04:00 65.7 °F 65.5 °F 29.9 in SSE 6 mph 9.2 mph 99% 0.01 in 0 W/m2
04:06 65.8 °F 65.7 °F 29.9 in SE 3.1 mph 9.2 mph 99% 0.01 in 0 W/m2
04:12 65.8 °F 65.7 °F 29.9 in SSE 1.6 mph 8.3 mph 99% 0.01 in 0 W/m2
04:18 65.8 °F 65.7 °F 29.9 in SE 5.4 mph 10.7 mph 99% 0.02 in 0 W/m2
04:24 65.8 °F 65.7 °F 29.9 in South 3.8 mph 9.2 mph 99% 0.02 in 0 W/m2
04:30 65.8 °F 65.7 °F 29.9 in South 5.4 mph 10.7 mph 99% 0.02 in 0 W/m2
04:36 65.8 °F 65.7 °F 29.9 in South 4.5 mph 10.7 mph 99% 0.04 in 0 W/m2
04:42 65.8 °F 65.7 °F 29.9 in South 6.9 mph 9.8 mph 99% 0.04 in 0 W/m2
04:48 65.8 °F 65.7 °F 29.9 in South 6 mph 13.6 mph 99% 0.05 in 0 W/m2
04:54 65.8 °F 65.7 °F 29.9 in SSE 2.2 mph 13.6 mph 99% 0.05 in 0 W/m2
05:00 65.8 °F 65.7 °F 29.9 in SSE 7.6 mph 10.7 mph 99% 0.06 in 0 W/m2
05:06 65.8 °F 65.7 °F 29.9 in SSE 6 mph 11.4 mph 99% 0.06 in 0 W/m2
05:12 65.8 °F 65.7 °F 29.9 in South 8.3 mph 11.4 mph 99% 0.06 in 0 W/m2
05:18 66 °F 65.8 °F 29.9 in South 4.5 mph 11.4 mph 99% 0.05 in 0 W/m2
05:24 66 °F 65.8 °F 29.9 in South 4.5 mph 10.7 mph 99% 0.05 in 0 W/m2
05:30 66 °F 65.8 °F 29.9 in South 3.8 mph 9.2 mph 99% 0.04 in 0 W/m2
05:35 66 °F 65.8 °F 29.9 in SSE 0.7 mph 8.3 mph 99% 0.02 in 0 W/m2
05:42 66 °F 65.8 °F 29.9 in Calm   3.8 mph 99% 0.01 in 0 W/m2
05:48 65.8 °F 65.7 °F 29.9 in SE 3.8 mph 6 mph 99% 0.01 in 0 W/m2
05:54 65.8 °F 65.7 °F 29.9 in ESE 1.6 mph 6.9 mph 99% 0.01 in 0 W/m2
06:00 65.8 °F 65.7 °F 29.9 in ESE 3.1 mph 9.8 mph 99% 0 in 0 W/m2
06:06 65.8 °F 65.7 °F 29.9 in ESE 0.7 mph 9.8 mph 99% 0 in 0 W/m2
06:12 65.8 °F 65.7 °F 29.9 in Calm   4.5 mph 99% 0 in 0 W/m2
06:18 65.8 °F 65.7 °F 29.9 in SSE 0.7 mph 6 mph 99% 0 in 0 W/m2
06:40 65.8 °F 65.7 °F 29.9 in South 0.7 mph 7.6 mph 99% 0.01 in 0 W/m2
06:46 65.8 °F 65.7 °F 29.9 in Calm   6.9 mph 99% 0.01 in 0 W/m2
06:51 65.8 °F 65.7 °F 29.9 in South 1.6 mph 3.1 mph 99% 0.01 in 0 W/m2
06:58 65.8 °F 65.7 °F 29.8 in SW 3.1 mph 5.4 mph 99% 0.01 in 0 W/m2
07:03 65.8 °F 65.7 °F 29.9 in SSW 2.2 mph 6.9 mph 99% 0.01 in 0 W/m2
07:10 66 °F 65.8 °F 29.9 in South 4.5 mph 8.3 mph 99% 0.01 in 0 W/m2
07:16 66 °F 65.8 °F 29.9 in Calm   8.3 mph 99% 0.01 in 0 W/m2
07:22 66 °F 65.8 °F 29.9 in South 2.2 mph 8.3 mph 99% 0.01 in 0 W/m2
07:28 66 °F 65.8 °F 29.9 in Calm   6 mph 99% 0.01 in 0 W/m2
07:34 66 °F 65.8 °F 29.9 in Calm   5.4 mph 99% 0 in 0 W/m2
07:40 66 °F 65.8 °F 29.9 in Calm   5.4 mph 99% 0 in 2 W/m2
07:45 66 °F 65.8 °F 29.8 in Calm   3.8 mph 99% 0 in 21 W/m2
07:51 66.2 °F 65.8 °F 29.9 in Calm   6.9 mph 99% 0 in 39 W/m2
07:57 66.2 °F 65.8 °F 29.9 in Calm   6.9 mph 99% 0 in 28 W/m2
08:03 66.2 °F 65.8 °F 29.9 in Calm     99% 0 in 26 W/m2
08:10 66.2 °F 65.8 °F 29.9 in Calm     99% 0 in 29 W/m2
08:15 66.2 °F 65.8 °F 29.9 in Calm   0.7 mph 99% 0 in 25 W/m2
08:22 66.2 °F 65.8 °F 29.9 in Calm   0.7 mph 99% 0 in 41 W/m2
08:28 66.6 °F 66.4 °F 29.9 in Calm     99% 0 in 82 W/m2
08:33 67.1 °F 66.7 °F 29.9 in Calm     99% 0 in 127 W/m2
08:40 67.5 °F 67.3 °F 29.9 in Calm     99% 0 in 145 W/m2
08:46 67.5 °F 67.3 °F 29.9 in SSW 1.6 mph 5.4 mph 99% 0 in 133 W/m2
08:52 67.3 °F 66.9 °F 29.9 in Calm   6 mph 99% 0 in 107 W/m2
08:57 67.3 °F 66.9 °F 29.9 in Calm   6 mph 99% 0 in 102 W/m2
09:03 67.3 °F 66.9 °F 29.9 in Calm   6 mph 99% 0 in 119 W/m2
09:10 67.3 °F 66.9 °F 29.9 in Calm   4.5 mph 99% 0 in 148 W/m2
09:16 67.6 °F 67.5 °F 29.9 in Calm   3.8 mph 99% 0 in 136 W/m2
09:21 67.8 °F 67.6 °F 29.9 in Calm   3.1 mph 99% 0 in 168 W/m2
09:27 68.2 °F 67.8 °F 29.9 in Calm   3.1 mph 99% 0 in 150 W/m2
09:34 68 °F 67.6 °F 29.9 in Calm     99% 0 in 162 W/m2
09:40 68.2 °F 67.8 °F 29.9 in Calm     99% 0 in 163 W/m2
09:45 68.5 °F 68.4 °F 29.9 in Calm   0.7 mph 99% 0 in 425 W/m2
09:51 69.6 °F 69.4 °F 29.9 in Calm   0.7 mph 99% 0 in 384 W/m2
09:57 70.7 °F 70.2 °F 29.9 in Calm     98% 0 in 234 W/m2
10:03 70.3 °F 69.3 °F 29.9 in Calm     96% 0.01 in 176 W/m2
10:11 70.2 °F 69.1 °F 29.9 in Calm     96% 0.01 in 225 W/m2
10:17 71.1 °F 69.6 °F 29.9 in Calm     95% 0.01 in 456 W/m2
10:23 71.8 °F 69.4 °F 29.9 in Calm     92% 0.01 in 551 W/m2
10:30 72.1 °F 69.1 °F 29.9 in Calm     90% 0.01 in 273 W/m2
10:35 71.4 °F 67.6 °F 29.9 in Calm     88% 0.01 in 252 W/m2
10:41 72 °F 68.9 °F 29.9 in Calm     90% 0.01 in 256 W/m2
10:47 71.2 °F 67.3 °F 29.9 in Calm   0.7 mph 87% 0.01 in 182 W/m2
10:53 70.7 °F 66.9 °F 29.9 in Calm   0.7 mph 88% 0.01 in 287 W/m2
11:00 72.5 °F 68.4 °F 29.9 in Calm     87% 0 in 228 W/m2
11:05 74.1 °F 69.4 °F 29.9 in Calm   2.2 mph 85% 0 in 158 W/m2
11:12 74.3 °F 67.8 °F 29.9 in SE 1.6 mph 4.5 mph 80% 0 in 273 W/m2
11:17 73.6 °F 68.5 °F 29.9 in Calm   4.5 mph 84% 0 in 282 W/m2
11:23 73 °F 67.3 °F 29.9 in Calm   3.8 mph 82% 0 in 308 W/m2
11:30 73 °F 68 °F 29.9 in Calm   3.8 mph 84% 0 in 247 W/m2
11:35 73.2 °F 67.5 °F 29.9 in Calm   4.5 mph 82% 0 in 263 W/m2
11:41 72 °F 66.6 °F 29.9 in South 3.8 mph 6.9 mph 83% 0 in 199 W/m2
11:47 71.1 °F 66.7 °F 29.9 in Calm   6.9 mph 86% 0 in 208 W/m2
11:53 71.1 °F 66.9 °F 29.9 in South 3.8 mph 6.9 mph 87% 0 in 527 W/m2
12:00 71.4 °F 67.5 °F 29.9 in South 0.7 mph 6.9 mph 87% 0 in 165 W/m2
12:05 72.1 °F 67.8 °F 29.9 in SSE 5.4 mph 7.6 mph 86% 0 in 678 W/m2
12:11 72.1 °F 67.5 °F 29.9 in SSW 5.4 mph 8.3 mph 85% 0 in 290 W/m2
12:17 72.1 °F 67.8 °F 29.9 in SSW 5.4 mph 8.3 mph 86% 0 in 614 W/m2
12:23 72.7 °F 67.8 °F 29.9 in SSW 3.1 mph 7.6 mph 85% 0 in 604 W/m2
12:30 73.2 °F 68.5 °F 29.9 in SW 4.5 mph 7.6 mph 85% 0 in 613 W/m2
12:35 73.6 °F 69.3 °F 29.9 in SW 6 mph 8.3 mph 86% 0 in 633 W/m2
12:41 73.2 °F 68.5 °F 29.9 in SSW 6 mph 9.2 mph 85% 0 in 702 W/m2
12:47 73.4 °F 69.1 °F 29.9 in SSW 6 mph 9.2 mph 86% 0 in 713 W/m2
12:53 73.2 °F 68.2 °F 29.9 in SSW 6 mph 10.7 mph 84% 0 in 692 W/m2
13:00 72.7 °F 67.8 °F 29.9 in SSW 7.6 mph 11.4 mph 85% 0 in 203 W/m2
13:05 72 °F 67.3 °F 29.9 in SSW 5.4 mph 9.8 mph 85% 0 in 193 W/m2
13:11 71.1 °F 66.9 °F 29.9 in SW 3.8 mph 10.7 mph 87% 0 in 757 W/m2
13:17 72 °F 67.6 °F 29.9 in SW 6.9 mph 9.2 mph 86% 0 in 667 W/m2
13:23 72.7 °F 67.6 °F 29.9 in South 6 mph 9.2 mph 84% 0 in 641 W/m2
13:30 73.4 °F 68.7 °F 29.9 in South 6 mph 9.2 mph 85% 0 in 682 W/m2
13:35 73.2 °F 67.8 °F 29.9 in SW 5.4 mph 9.8 mph 83% 0 in 656 W/m2
13:41 73 °F 67.6 °F 29.9 in SSW 6 mph 11.4 mph 83% 0 in 662 W/m2
13:47 73.8 °F 68.7 °F 29.9 in SSW 6 mph 11.4 mph 84% 0 in 647 W/m2
13:54 73.2 °F 67.8 °F 29.9 in South 4.5 mph 9.8 mph 83% 0 in 640 W/m2
14:00 72.3 °F 66.9 °F 29.9 in South 5.4 mph 9.8 mph 83% 0 in 606 W/m2
14:05 71.6 °F 66.9 °F 29.9 in South 6 mph 9.8 mph 85% 0 in 609 W/m2
14:11 71.1 °F 66.7 °F 29.9 in South 6 mph 9.8 mph 86% 0 in 420 W/m2
14:17 70.5 °F 66.7 °F 29.9 in South 3.8 mph 9.8 mph 88% 0 in 615 W/m2
14:23 72.1 °F 67.8 °F 29.9 in South 4.5 mph 8.3 mph 86% 0 in 623 W/m2
14:30 73.2 °F 68.2 °F 29.9 in South 5.4 mph 7.6 mph 84% 0 in 548 W/m2
14:35 73.8 °F 69.1 °F 29.9 in South 3.8 mph 8.3 mph 85% 0 in 615 W/m2
14:41 74.1 °F 68.7 °F 29.9 in SSE 3.8 mph 8.3 mph 83% 0 in 480 W/m2
14:47 73.9 °F 68.2 °F 29.9 in SSE 3.1 mph 7.6 mph 82% 0 in 140 W/m2
14:53 72.1 °F 66.7 °F 29.9 in South 3.8 mph 6 mph 83% 0 in 172 W/m2
15:00 71.1 °F 66.7 °F 29.9 in South 3.8 mph 6.9 mph 86% 0 in 187 W/m2
15:05 71.8 °F 67.5 °F 29.9 in South 5.4 mph 6.9 mph 86% 0 in 595 W/m2
15:11 73 °F 68 °F 29.8 in South 1.6 mph 9.2 mph 84% 0 in 247 W/m2
15:17 73.4 °F 68.4 °F 29.9 in South 0.7 mph 9.2 mph 84% 0 in 263 W/m2
15:23 75 °F 68.7 °F 29.9 in SSW 0.7 mph 7.6 mph 81% 0 in 278 W/m2
15:30 75.2 °F 67.8 °F 29.8 in South 2.2 mph 7.6 mph 78% 0 in 291 W/m2
15:35 76.5 °F 67.6 °F 29.8 in SE 6.9 mph 11.4 mph 74% 0 in 264 W/m2
15:41 76.3 °F 60.1 °F 29.8 in NNE 3.1 mph 11.4 mph 57% 0 in 255 W/m2
15:47 77.2 °F 60.3 °F 29.8 in NNE 5.4 mph 9.8 mph 56% 0 in 252 W/m2
15:53 76.8 °F 59 °F 29.8 in North 5.4 mph 13 mph 54% 0 in 237 W/m2
16:00 76.3 °F 59 °F 29.9 in North 9.2 mph 13 mph 55% 0 in 207 W/m2
16:05 76.1 °F 59.4 °F 29.8 in North 3.8 mph 11.4 mph 56% 0 in 179 W/m2
16:11 75.6 °F 59.4 °F 29.8 in North 5.4 mph 11.4 mph 57% 0 in 150 W/m2
16:17 75.2 °F 59.4 °F 29.9 in North 4.5 mph 11.4 mph 58% 0 in 150 W/m2
16:23 75 °F 59.7 °F 29.8 in North 6 mph 10.7 mph 59% 0 in 160 W/m2
16:30 75 °F 60.3 °F 29.8 in North 1.6 mph 10.7 mph 60% 0 in 144 W/m2
16:35 75 °F 60.3 °F 29.8 in North 3.8 mph 9.8 mph 60% 0 in 137 W/m2
16:41 75 °F 60.3 °F 29.8 in NNE 5.4 mph 9.8 mph 60% 0 in 134 W/m2
16:47 75 °F 60.6 °F 29.8 in NNE 3.1 mph 9.8 mph 61% 0 in 103 W/m2
16:53 74.5 °F 60.3 °F 29.9 in NE 6.9 mph 9.2 mph 61% 0 in 96 W/m2
17:00 74.1 °F 60.3 °F 29.9 in NNE 2.2 mph 9.8 mph 62% 0 in 83 W/m2
17:05 73.9 °F 61 °F 29.8 in NE 3.8 mph 9.8 mph 64% 0 in 70 W/m2
17:11 73.4 °F 60.4 °F 29.8 in NNE 3.8 mph 9.2 mph 64% 0 in 59 W/m2
17:17 73 °F 59.4 °F 29.8 in North 11.4 mph 15.2 mph 62% 0 in 52 W/m2
17:23 72.7 °F 59.4 °F 29.9 in North 9.8 mph 15.2 mph 63% 0 in 43 W/m2
17:30 72.3 °F 59.5 °F 29.9 in North 9.2 mph 14.5 mph 64% 0 in 33 W/m2
17:35 72.1 °F 58.8 °F 29.9 in North 4.5 mph 14.5 mph 63% 0 in 33 W/m2
17:41 72 °F 58.6 °F 29.9 in NNE 6.9 mph 16.8 mph 63% 0 in 29 W/m2
17:47 72 °F 58.3 °F 29.9 in North 8.3 mph 16.8 mph 62% 0 in 23 W/m2
17:53 72 °F 58.3 °F 29.9 in North 7.6 mph 16.8 mph 62% 0 in 18 W/m2
18:00 72 °F 58.3 °F 29.9 in NNE 8.3 mph 14.5 mph 62% 0 in 14 W/m2
18:05 72 °F 58.3 °F 29.9 in North 13.6 mph 17.4 mph 62% 0 in 13 W/m2
18:11 71.8 °F 58.1 °F 29.9 in NNE 7.6 mph 17.4 mph 62% 0 in 10 W/m2
18:17 71.6 °F 57.9 °F 29.9 in NNE 5.4 mph 14.5 mph 62% 0 in 7 W/m2
18:23 71.2 °F 58.5 °F 29.9 in North 8.3 mph 13 mph 64% 0 in 5 W/m2
18:30 71.2 °F 58.5 °F 29.9 in North 6 mph 13 mph 64% 0 in 4 W/m2
18:35 70.7 °F 58.8 °F 29.9 in North 6 mph 13.6 mph 66% 0 in 3 W/m2
18:41 70 °F 59.4 °F 29.9 in North 5.4 mph 12.1 mph 69% 0 in 2 W/m2
18:47 69.3 °F 59.9 °F 29.9 in North 7.6 mph 14.5 mph 72% 0 in 2 W/m2
18:53 68.9 °F 60.3 °F 29.9 in North 4.5 mph 15.2 mph 74% 0 in 1 W/m2
19:00 68.4 °F 60.4 °F 29.9 in NNE 3.1 mph 9.2 mph 76% 0.01 in 0 W/m2
19:05 67.8 °F 60.6 °F 29.9 in NNE 3.8 mph 9.2 mph 78% 0.02 in 0 W/m2
19:11 67.1 °F 61.2 °F 29.9 in NE 3.8 mph 9.2 mph 81% 0.04 in 0 W/m2
19:17 66.6 °F 61.5 °F 29.9 in NE 3.1 mph 9.2 mph 84% 0.04 in 0 W/m2
19:23 66.4 °F 61.3 °F 29.9 in NE 2.2 mph 9.2 mph 84% 0.04 in 0 W/m2
19:30 66 °F 61.7 °F 29.9 in NE 3.1 mph 7.6 mph 86% 0.04 in 0 W/m2
19:35 65.8 °F 61.5 °F 29.9 in NNE 2.2 mph 6.9 mph 86% 0.05 in 0 W/m2
19:41 65.8 °F 61.5 °F 29.9 in Calm   8.3 mph 86% 0.05 in 0 W/m2
19:47 65.7 °F 61.7 °F 29.9 in NNE 1.6 mph 3.8 mph 87% 0.05 in 0 W/m2
19:53 65.5 °F 61.5 °F 29.9 in NE 0.7 mph 5.4 mph 87% 0.04 in 0 W/m2
20:00 65.7 °F 61.7 °F 29.9 in Calm   5.4 mph 87% 0.04 in 0 W/m2
20:05 65.7 °F 61.7 °F 29.9 in Calm   4.5 mph 87% 0.02 in 0 W/m2
20:11 65.8 °F 61.5 °F 29.9 in NE 1.6 mph 5.4 mph 86% 0.01 in 0 W/m2
20:17 66 °F 61.7 °F 29.9 in Calm   5.4 mph 86% 0.01 in 0 W/m2
20:23 66.4 °F 61.3 °F 29.9 in Calm   3.8 mph 84% 0.01 in 0 W/m2
20:30 66.6 °F 61.5 °F 29.9 in Calm   4.5 mph 84% 0.01 in 0 W/m2
20:35 66.7 °F 61.3 °F 29.9 in NNE 2.2 mph 6 mph 83% 0 in 0 W/m2
20:41 67.3 °F 61 °F 29.9 in North 3.8 mph 12.1 mph 80% 0 in 0 W/m2
20:47 68 °F 60.4 °F 29.9 in North 2.2 mph 12.1 mph 77% 0 in 0 W/m2
20:53 68.2 °F 60.4 °F 29.9 in NNE 3.8 mph 9.2 mph 76% 0 in 0 W/m2
21:00 68.2 °F 60.4 °F 29.9 in North 3.8 mph 9.2 mph 76% 0 in 0 W/m2
21:05 68.4 °F 60.3 °F 29.9 in North 3.8 mph 9.2 mph 75% 0 in 0 W/m2
21:11 68.2 °F 60.4 °F 29.9 in North 2.2 mph 9.2 mph 76% 0 in 0 W/m2
21:17 67.6 °F 61 °F 29.9 in NNE 5.4 mph 9.8 mph 79% 0.01 in 0 W/m2
21:23 67.5 °F 60.6 °F 29.9 in NNE 5.4 mph 11.4 mph 79% 0.01 in 0 W/m2
21:30 67.6 °F 60.6 °F 29.9 in NNE 6 mph 13.6 mph 78% 0.01 in 0 W/m2
21:35 68 °F 60.3 °F 29.9 in North 9.2 mph 13.6 mph 76% 0.01 in 0 W/m2
21:41 68.2 °F 60.1 °F 29.9 in North 4.5 mph 13.6 mph 75% 0.01 in 0 W/m2
21:47 68.2 °F 59.5 °F 29.9 in North 3.8 mph 9.8 mph 74% 0.01 in 0 W/m2
21:53 68.7 °F 59.4 °F 29.9 in North 6 mph 16.8 mph 72% 0.01 in 0 W/m2
22:00 69.1 °F 58.8 °F 29.9 in NNE 5.4 mph 19 mph 70% 0.01 in 0 W/m2
22:05 69.3 °F 59.2 °F 29.9 in NNE 5.4 mph 15.2 mph 70% 0.01 in 0 W/m2
22:11 69.3 °F 59.2 °F 29.9 in NNE 4.5 mph 13.6 mph 70% 0.01 in 0 W/m2
22:17 69.3 °F 59.2 °F 29.9 in NE 4.5 mph 15.2 mph 70% 0 in 0 W/m2
22:23 69.3 °F 59.2 °F 29.9 in NE 5.4 mph 15.2 mph 70% 0 in 0 W/m2
22:30 69.4 °F 58.8 °F 29.9 in ENE 4.5 mph 11.4 mph 69% 0 in 0 W/m2
22:35 69.4 °F 58.8 °F 29.9 in NE 6 mph 12.1 mph 69% 0 in 0 W/m2
22:41 69.4 °F 58.8 °F 29.9 in ENE 3.8 mph 13 mph 69% 0 in 0 W/m2
22:47 69.3 °F 58.6 °F 29.9 in ENE 5.4 mph 12.1 mph 69% 0 in 0 W/m2
22:53 69.3 °F 59.2 °F 29.9 in NNE 3.8 mph 9.8 mph 70% 0 in 0 W/m2
23:00 68.5 °F 59.5 °F 29.9 in NNE 7.6 mph 12.1 mph 73% 0.01 in 0 W/m2
23:05 68.2 °F 59.5 °F 29.9 in NE 6 mph 14.5 mph 74% 0.01 in 0 W/m2
23:11 68 °F 59.7 °F 29.9 in NE 6 mph 14.5 mph 75% 0.01 in 0 W/m2
23:17 67.8 °F 60.1 °F 29.9 in NE 6.9 mph 13 mph 76% 0.01 in 0 W/m2
23:23 68 °F 59.7 °F 29.9 in NNE 5.4 mph 13 mph 75% 0.01 in 0 W/m2
23:30 67.3 °F 59.7 °F 29.9 in NNE 6 mph 14.5 mph 77% 0.02 in 0 W/m2
23:35 66.9 °F 60.3 °F 29.9 in NNE 3.1 mph 14.5 mph 79% 0.02 in 0 W/m2
23:41 66.6 °F 60.3 °F 29.9 in NNE 1.6 mph 10.7 mph 80% 0.02 in 0 W/m2
23:47 66.4 °F 60.4 °F 29.9 in NNE 3.8 mph 9.8 mph 81% 0.02 in 0 W/m2
23:53 66.6 °F 59.9 °F 29.9 in NNE 1.6 mph 11.4 mph 79% 0.02 in 0 W/m2
Northern Hawkes Bay. New Zealand Historic Data
Compliments of Weather Underground - 2 mb